Jean-Luc Lefebvre

Recruteur - Red Star
3 Déc 2028
Dimanche
Processus

Personnalité

Adaptabilité (8) Ambition (19) Controverse (4) Loyauté (4) Pression (1) Professionnalisme (8) Sportivité (1) Tempérament (5)

Profil

Style d'entraînement Démocratique
Diplôme National A
Détermination 7
Gestion des joueurs 11
Motivation 4
Discipline 3
Satisfaction professionnelle
100%
Fatigue
0%
Rôle Recruteur
Salaire 19.7K p/s
Contrat 14.03.2029

Performance

Comportement Bon
Efficacité de l'entraînement
29%
Développement des joueurs
45%
Prévention des blessures
55%
Mise en place tactique
15%

Événements récents

A participé à une réunion de recrutement 14j
A participé à une réunion de recrutement 21j
A participé à une réunion de recrutement 28j
A participé à une réunion de recrutement 35j
A participé à une réunion de recrutement 42j
A participé à une réunion de recrutement 49j
A participé à une réunion de recrutement 56j
A recommandé une cible de transfert 56j

Suivi en cours

187
Joueur Club Statut Capacité Confiance Observé Dernière observation Dernier vote
Peyton Miller New England Revolution Actif 98 / 137 40% 1 14.08.2028 -
Fabio Rispoli Como Actif 118 / 116 40% 1 14.08.2028 -
Diego Gaitán Maipú Actif 129 / 132 40% 1 10.08.2028 -
Ousmane Coulibaly Stade Malien Actif 104 / 103 40% 1 10.08.2028 -
Kwesi Sorotu Badori Berekum Chelsea Actif 94 / 93 40% 1 08.08.2028 -
Djibrine Abakar Stars Jeunes Talents Actif 58 / 71 40% 1 08.08.2028 -
Igor Tyjon Barrow AFC Actif 118 / 131 40% 3 07.08.2028 -
Tomás Pozzo Godoy Cruz Actif 141 / 113 40% 1 07.08.2028 -
Callum Wright Plymouth Argyle Actif 126 / 110 40% 1 25.07.2028 -
Juan Sebastián Herrera Deportivo La Guaira Actif 116 / 96 40% 1 22.07.2028 -
Darragh Burns Grimsby Town Actif 116 / 118 40% 1 22.07.2028 -
Luca Meirelles Kudrivka Actif 120 / 118 40% 1 20.07.2028 -
Jordan Gibson Cheltenham Town Actif 118 / 111 40% 1 20.07.2028 -
Jon Eceizabarrena Real Sociedad Actif 107 / 110 40% 1 19.07.2028 -
Aaron Morley Wycombe Wanderers Actif 116 / 133 40% 1 19.07.2028 -
Diego Vargas Universidad de Concepcion Actif 88 / 103 40% 3 18.07.2028 -
Gideon Manaseh Ikorodu City Actif 84 / 89 40% 3 18.07.2028 -
Caylan Vickers Burton Albion Actif 113 / 124 40% 1 18.07.2028 -
Fletcher Boyd Accrington Stanley Actif 106 / 112 40% 1 18.07.2028 -
Jenson Metcalfe Bradford City Actif 115 / 124 40% 1 16.07.2028 -
Mohamadou Kanté Crawley Town Actif 132 / 124 40% 1 14.07.2028 -
Gabe Forsyth Colchester United Actif 110 / 121 40% 1 14.07.2028 -
Leighton Clarkson Blackpool Actif 135 / 129 40% 1 13.07.2028 -
Adam Phillips Northampton Town Actif 125 / 120 40% 1 13.07.2028 -
Kyreece Lisbie Colchester United Actif 117 / 109 40% 1 12.07.2028 -
Chiquinho Leixões Actif 146 / 139 40% 1 12.07.2028 -
Daouda Coulibaly Stade Malien Actif 95 / 98 40% 1 11.07.2028 -
Jan Bürger Northampton Town Actif 116 / 128 40% 1 10.07.2028 -
Atsuki Ito Bolton Wanderers Actif 140 / 129 40% 2 07.07.2028 -
Josh Benson Rotherham United Actif 117 / 111 40% 2 05.07.2028 -
Kiani Inge Groningen Actif 112 / 118 40% 2 04.07.2028 -
Tibe De Vlieger KAA Gent Actif 109 / 127 40% 1 04.07.2028 -
Reyes Cleary Bromley Actif 125 / 123 40% 1 04.07.2028 -
Kyle John Port Vale Actif 114 / 111 40% 1 02.07.2028 -
Dennis Cirkin Queens Park Rangers Actif 142 / 128 40% 1 28.06.2028 -
Ryan McAidoo Oldham Athletic Actif 125 / 127 40% 1 28.06.2028 -
Thierry Gale Swindon Town Actif 120 / 126 40% 1 27.06.2028 -
Flynn Downes Sheffield Wednesday Actif 144 / 136 40% 1 27.06.2028 -
Arsene Mekila Gazelle Garoua Actif 77 / 105 40% 5 26.06.2028 -
Richard Koné Queens Park Rangers Actif 138 / 127 40% 1 24.06.2028 -
Jalen Blesa Oliveirense Actif 122 / 134 40% 1 22.06.2028 -
James Dornelly Peterborough United Actif 117 / 109 40% 1 22.06.2028 -
Odin Bailey Stockport County Actif 119 / 112 40% 1 21.06.2028 -
Ben Wiles Milton Keynes Dons Actif 126 / 118 40% 1 21.06.2028 -
Kevin Medina Mirandés Actif 125 / 119 40% 1 15.06.2028 -
Isaac Monnier FC Lorient Actif 93 / 109 40% 3 02.06.2028 -
Luis Otávio Orlando City Actif 126 / 131 40% 1 02.06.2028 -
Jason Witsel PSV Actif 129 / 122 40% 4 01.06.2028 -
Denis Grigorjev Arsenal Tula Actif 81 / 107 40% 1 01.06.2028 -
Kelian Le Pironnec Mirandés Actif 105 / 94 40% 6 31.05.2028 -
Olivier Leroux Mouscron Actif 109 / 107 40% 4 31.05.2028 -
Filippo Manfrin Arzignano Actif 111 / 113 40% 2 31.05.2028 -
Ludovico Del Sorbo Sorrento Actif 113 / 133 40% 3 31.05.2028 -
George Hall Port Vale Actif 123 / 121 40% 1 31.05.2028 -
Aliou Diakité Real Bamako Actif 111 / 108 40% 1 31.05.2028 -
Maël Monyebe Gazelle Garoua Actif 97 / 98 40% 2 30.05.2028 -
Ahmed Zaki Masr El Makasa Actif 80 / 86 40% 1 30.05.2028 -
Frankarlos Benítez Caracas Actif 131 / 119 40% 2 29.05.2028 -
Josh Nichols Oldham Athletic Actif 122 / 126 40% 4 28.05.2028 -
Nko Ghangle Rattensi Victoria United Actif 85 / 88 40% 1 28.05.2028 -
Itumeleng Grobler Free State Stars Actif 112 / 98 40% 3 27.05.2028 -
Miguel Figueiredo Benfica Actif 127 / 128 40% 2 27.05.2028 -
Amanuel Pellaers Racing Genk Actif 83 / 108 40% 2 27.05.2028 -
Máximo Núñez Los Andes Actif 85 / 99 40% 1 26.05.2028 -
Marius Louër Angers SCO Actif 104 / 128 40% 1 26.05.2028 -
Anthony Cletus Bendel Insurance Actif 97 / 99 40% 3 25.05.2028 -
Simone Suppa Virtus Verona Actif 83 / 99 40% 2 22.05.2028 -
Ousmane Simpara Etoiles du Mande Actif 97 / 118 40% 2 22.05.2028 -
Pavlo Isenko Universitatea Craiova Actif 122 / 114 40% 1 22.05.2028 -
Nahuel González Alvarado Actif 90 / 99 40% 1 22.05.2028 -
Sam Proctor Salford City Actif 117 / 134 40% 3 20.05.2028 -
Adam Hrdina Zbrojovka Brno Actif 131 / 121 40% 3 20.05.2028 -
Joe Whitworth Wigan Athletic Actif 119 / 134 40% 2 19.05.2028 -
Davide Mastrantonio Latina Actif 102 / 99 40% 1 19.05.2028 -
Kwame Nuhu Heart of Lions Actif 81 / 86 40% 1 18.05.2028 -
Stanislav Bukatov Salyut Actif 77 / 92 40% 1 17.05.2028 -
Matúš Sláviček AS Trencin Actif 121 / 112 40% 1 17.05.2028 -
Andrés Macea Deportivo Pereira Actif 89 / 104 40% 1 16.05.2028 -
Nicolò Moranduzzo Renate Actif 95 / 100 40% 2 14.05.2028 -
Andrey Ivlev Nizhniy Novgorod Actif 129 / 112 40% 2 14.05.2028 -
David Fernande PWD Bamenda Actif 62 / 64 40% 2 13.05.2028 -
Mateo Albornoz Castellón Actif 97 / 102 40% 2 11.05.2028 -
Stephen McMullan Fleetwood Town Actif 97 / 118 40% 2 11.05.2028 -
Ifeanyi Emmanuel Niger Tornadoes Actif 113 / 120 40% 3 09.05.2028 -
Luca Pausé Groningen Actif 99 / 112 40% 1 09.05.2028 -
Joel Ezra Enyimba Actif 113 / 117 40% 2 08.05.2028 -
Roman Zhoglo Birkirkara Actif 96 / 95 40% 1 08.05.2028 -
Alvin Binsto PWD Bamenda Actif 102 / 82 40% 1 08.05.2028 -
Amine Boukamir Charleroi Actif 105 / 112 40% 3 07.05.2028 -
Daniel Banjaqui Benfica Actif 125 / 131 40% 3 07.05.2028 -
Sergio Barlocco Trento Actif 126 / 124 40% 3 06.05.2028 -
Aboubacar Meïté Afrique Foot Elite Actif 89 / 108 40% 2 06.05.2028 -
Mikhail Gaidash Spartak Kostroma Actif 100 / 102 40% 2 05.05.2028 -
Destiny Geneneke PWD Bamenda Actif 92 / 100 40% 1 04.05.2028 -
Kamaldeen Atiemo Wa All Stars Actif 96 / 113 40% 2 03.05.2028 -
Cristian Santander Barranquilla Actif 132 / 109 40% 2 02.05.2028 -
Leon Borković Irkutsk Actif 75 / 94 40% 1 02.05.2028 -
Maxim Shichanin Zenit Actif 99 / 112 40% 4 28.04.2028 -
Matteo Raffaelli Ascoli Actif 113 / 121 40% 2 28.04.2028 -
Tobías Ramírez River Plate Actif 131 / 127 40% 1 28.04.2028 -
Konta Ismaily Actif 99 / 106 40% 3 27.04.2028 -
Robert Cook Accrington Stanley Actif 108 / 122 40% 1 27.04.2028 -
Luca Martelli Forli Actif 101 / 91 40% 2 25.04.2028 -
Andy Ezekiel Petrojet Actif 92 / 105 40% 3 24.04.2028 -
George Evans Exeter City Actif 121 / 123 40% 2 23.04.2028 -
Facundo Vila Estudiantes Actif 126 / 127 40% 2 23.04.2028 -
Thijs Kraaijeveld USM Alger Actif 122 / 129 40% 2 23.04.2028 -
Alessio Insignito Spezia Actif 108 / 103 40% 1 22.04.2028 -
Gregory Sekyere Aduana Stars Actif 114 / 83 40% 1 21.04.2028 -
Gael Moreno Morelia Actif 57 / 87 40% 1 21.04.2028 -
Kubrat Onasci Septemvri Actif 98 / 109 40% 1 21.04.2028 -
Matthew Rowley Reading Actif 99 / 96 40% 1 20.04.2028 -
Kamiel Timmermans Anderlecht Actif 87 / 101 40% 1 19.04.2028 -
Emeka Kelvin Agu Sliema Wanderers Actif 86 / 96 40% 1 19.04.2028 -
Thato Sibiya Orlando Pirates Actif 118 / 118 40% 1 19.04.2028 -
Gabriele Baldi Guidonia Montecelio Actif 106 / 122 40% 2 18.04.2028 -
Bernardo Lima Porto Actif 100 / 107 40% 2 18.04.2028 -
Lisandro Musso Central Córdoba SdE Actif 98 / 106 40% 1 18.04.2028 -
Themba Modiba Black Aces Actif 82 / 88 40% 1 18.04.2028 -
Alejo Medina Agropecuario Argentino Actif 116 / 113 40% 1 17.04.2028 -
Gladson Amoah Liberty Professionals Actif 114 / 85 40% 1 16.04.2028 -
Pierre Ikong Dynamo Douala Actif 77 / 101 40% 1 16.04.2028 -
Ezechiel Djimet AS Algoy Actif 66 / 77 40% 1 16.04.2028 -
Mate Modric Zadar Actif 137 / 121 40% 1 15.04.2028 -
Nour Ashraf ENPPI Actif 91 / 89 40% 1 15.04.2028 -
Matvey Bardachev Zenit Actif 94 / 103 40% 2 14.04.2028 -
Riquelme Thompson-Jones Accrington Stanley Actif 107 / 108 40% 2 13.04.2028 -
Filip Marschall Stevenage Actif 118 / 135 40% 2 13.04.2028 -
Augusto Bando Ascoli Actif 101 / 110 40% 1 11.04.2028 -
Killian Cahill Leyton Orient Actif 118 / 106 40% 2 10.04.2028 -
Artem Nosachev Spartak Moscow Actif 79 / 70 40% 1 10.04.2028 -
Andrea Sergio Mazza Giana Erminio Actif 98 / 100 40% 3 09.04.2028 -
Marc Colin Tours Actif 121 / 118 40% 1 08.04.2028 -
Zoltan Kleinheisler Haladas Actif 110 / 106 40% 1 07.04.2028 -
Claudio Martey Pianese Actif 85 / 99 40% 1 06.04.2028 -
Jack Wint Sibenik Actif 88 / 91 40% 1 06.04.2028 -
Diego Bolaños Veracruz Actif 81 / 105 40% 1 05.04.2028 -
Martim Cunha Porto Actif 115 / 102 40% 1 03.04.2028 -
Ali Ishaku Abia Warriors Actif 109 / 118 40% 1 31.03.2028 -
Tyler Fletcher Rotherham United Actif 101 / 107 40% 3 29.03.2028 -
Stefan Mitrović Zeleznicar Pancevo Actif 103 / 82 40% 1 25.03.2028 -
Ismaël Fansu Unisport Bafang Actif 73 / 83 40% 2 24.03.2028 -
Idrissa Sabaly Valenciennes Actif 88 / 115 40% 2 24.03.2028 -
Khama Mabunda Platinum Stars Actif 83 / 69 40% 2 23.03.2028 -
Ahmat Doungous Gazelle Actif 44 / 56 40% 1 23.03.2028 -
Jakub Badžgoň MSK Zilina Actif 104 / 116 40% 1 22.03.2028 -
Lior Mashansky Foullah Edifice Actif 64 / 58 40% 2 21.03.2028 -
Ahmat Abba AS Etat Major Actif 75 / 58 40% 1 21.03.2028 -
Ronan Kpakio AC Milan Actif 134 / 134 40% 1 20.03.2028 -
Nikita Yanovich Tyumen Actif 116 / 89 40% 1 19.03.2028 -
Dmitry Loktev Rotor Actif 49 / 46 40% 1 18.03.2028 -
Antonino Viola Catania Actif 112 / 108 40% 1 16.03.2028 -
Alain Zadi Sarpsborg 08 Actif 101 / 101 40% 1 16.03.2028 -
James Tendoh Canon Yaounde Actif 82 / 73 40% 1 16.03.2028 -
Tobiáš Pališčák Zlin Actif 101 / 123 40% 1 06.03.2028 -
Isaías Silva Miramar Misiones Actif 74 / 101 40% 2 31.12.2027 -
David Damboama El-Kanemi Warriors Actif 79 / 85 40% 3 31.12.2027 -
Olaniyi Saheed Kwara United Actif 87 / 98 40% 1 27.12.2027 -
Lucas Nicol Mjondalen Actif 79 / 89 40% 2 26.12.2027 -
Esquerdinha Notts County Actif 126 / 137 40% 3 26.12.2027 -
Melvin Vučenović Persson Atvidaberg Actif 85 / 95 40% 3 25.12.2027 -
Francisco Machis Llaneros Actif 93 / 101 40% 2 24.12.2027 -
Lucas Camejo River Plate Actif 70 / 105 40% 5 20.12.2027 -
Tiago Gordillo San Miguel Actif 94 / 105 40% 2 15.12.2027 -
Onyeuche Ujunwa Ikorodu City Actif 86 / 107 40% 6 14.12.2027 -
Hosea Michael Remo Stars Actif 101 / 94 40% 3 12.12.2027 -
Ivan Borges Defensores Actif 85 / 106 40% 5 09.12.2027 -
Nazareno Roselli Defensa y Justicia Actif 116 / 121 40% 1 09.12.2027 -
Yury Oyarzo Racing Actif 98 / 108 40% 1 06.12.2027 -
Godswill Kenu Bayelsa United Actif 67 / 80 40% 1 06.12.2027 -
Nicolas Sport Recife Actif 100 / 124 40% 1 03.12.2027 -
Bogard Agbor PWD Bamenda Actif 65 / 86 40% 1 30.11.2027 -
Juan Camilo Córdoba Deportivo Pereira Actif 81 / 104 40% 1 29.11.2027 -
Agustín Obregón River Plate Actif 126 / 119 40% 2 21.11.2027 -
Mohamed Moussa Koïta Mathare United Actif 110 / 113 40% 1 21.11.2027 -
Mohammed Habib Sarwari Kariobangi Sharks Actif 57 / 67 40% 1 12.11.2027 -
Matys Donavin AC Ajaccio Actif 93 / 103 40% 1 09.11.2027 -
Ignacio Fernández Boston River Actif 97 / 102 40% 1 08.11.2027 -
Daniel Idoko Ikorodu City Actif 89 / 100 40% 2 05.11.2027 -
Idriss Ashiru Kariobangi Sharks Actif 60 / 72 40% 2 04.11.2027 -
Nahuel Leivas Montevideo City Torque Actif 114 / 104 40% 1 04.11.2027 -
Adrian Skogmar Malmo FF Actif 122 / 107 40% 1 19.10.2027 -
Juan Diego Perdomo Depor Actif 95 / 107 40% 2 18.10.2027 -
Esteban de Lima Tacuarembo Actif 99 / 111 40% 1 17.10.2027 -
Fallou Fall Olympique Lyonnais Actif 97 / 89 58% 1 21.06.2027 -
Georges Gomis Le Havre AC Actif 102 / 120 58% 1 14.06.2027 -
Rocco Vata Watford Actif 128 / 135 40% 1 31.12.2026 -